Decoded Metar for KMAN ( in ) (IATA:) | Meteo·Mobile Aviation Weather
aviador You're here:

KMAN Decoded Metar

in
Report Time2018-10-15 18:55:00
UTC Time2018-10-15 19:05:10
Flight Rules vfr VFR
Wind320° at 06 kt
W.Decomp.*RWY 29: 5.2 kt HW 3.0 kt RCW
W.Rank320° ranks 1
Current wind is below 320° avg. (7.8)
Visibility9999 m
Phenomena:N/A
Clouds:N/A
Expected CloudBase > 6,400 ft AGL from Temp-Dew spread
CeilingNone
Temp10°C
Dew Point-6°C (32% RH)
AAT5.1°C
QNH1031 hPa
Raw Report
KMAN 151855Z AUTO 32006KT 10SM CLR 10/M06 A3046 RMK A01=

Extra information for KMAN:More info

Social comments